Time;durP1;ratioP1;P1;durP2;ratioP2;P2;SDS_P1;SDS_P2;PMS_P1;PMS_P2;Temp;Humidity;BMP_temperature;BMP_pressure;BME280_temperature;BME280_humidity;BME280_pressure;Samples;Min_cycle;Max_cycle;Signal;HPM_P1;HPM_P2
2022/09/17 00:01:21;;;;;;;4.05;1.50;;;10.70;99.90;;;;;;5074052;28;20041;-69
2022/09/17 00:03:53;;;;;;;6.25;1.50;;;10.70;99.90;;;;;;5072210;28;20048;-68
2022/09/17 00:06:20;;;;;;;2.80;1.50;;;10.70;99.90;;;;;;5086583;28;20873;-69
2022/09/17 00:08:47;;;;;;;4.65;1.48;;;10.70;99.90;;;;;;5073634;28;20427;-68
2022/09/17 00:11:19;;;;;;;6.30;1.80;;;10.60;99.90;;;;;;5057517;28;20044;-69
2022/09/17 00:13:46;;;;;;;5.00;1.35;;;10.60;99.90;;;;;;5073976;28;20533;-69
2022/09/17 00:16:41;;;;;;;6.57;1.80;;;10.60;99.90;;;;;;5075599;28;20140;-69
2022/09/17 00:19:18;;;;;;;5.55;1.80;;;10.60;99.90;;;;;;5073886;28;20036;-69
2022/09/17 00:21:45;;;;;;;8.98;1.70;;;10.50;99.90;;;;;;5073546;28;20052;-68
2022/09/17 00:24:12;;;;;;;8.13;1.45;;;10.50;99.90;;;;;;5076422;28;20174;-69
2022/09/17 00:26:39;;;;;;;4.38;1.40;;;10.50;99.90;;;;;;5092392;28;20089;-69
2022/09/17 00:29:06;;;;;;;4.93;1.38;;;10.40;99.90;;;;;;5093352;28;20089;-69
2022/09/17 00:31:33;;;;;;;7.25;1.60;;;10.40;99.90;;;;;;5108238;28;20422;-69
2022/09/17 00:34:00;;;;;;;3.25;1.23;;;10.40;99.90;;;;;;5093054;28;20110;-68
2022/09/17 00:36:27;;;;;;;4.25;2.03;;;10.40;99.90;;;;;;5065839;28;20147;-69
2022/09/17 00:38:56;;;;;;;5.32;1.48;;;10.40;99.90;;;;;;5084849;28;20044;-69
2022/09/17 00:41:25;;;;;;;3.60;1.43;;;10.30;99.90;;;;;;5089604;28;20097;-69
2022/09/17 00:43:53;;;;;;;4.88;1.27;;;10.30;99.90;;;;;;5089660;28;20559;-69
2022/09/17 00:46:34;;;;;;;7.18;1.95;;;10.30;99.90;;;;;;5092527;28;20052;-69
2022/09/17 00:49:09;;;;;;;7.65;1.70;;;10.20;99.90;;;;;;5103613;28;20051;-69
2022/09/17 00:51:39;;;;;;;5.30;1.40;;;10.20;99.90;;;;;;5073978;28;20044;-69
2022/09/17 00:54:07;;;;;;;6.00;2.10;;;10.20;99.90;;;;;;5073109;28;20456;-69
2022/09/17 00:56:36;;;;;;;3.78;1.25;;;10.20;99.90;;;;;;5072825;28;20044;-69
2022/09/17 00:59:02;;;;;;;5.72;1.70;;;10.20;99.90;;;;;;5057556;28;20044;-69
2022/09/17 01:01:30;;;;;;;4.45;2.03;;;10.30;99.90;;;;;;5066736;28;20067;-68
2022/09/17 01:03:57;;;;;;;5.60;1.40;;;10.30;99.90;;;;;;5072105;28;20090;-68
2022/09/17 01:06:41;;;;;;;3.67;1.20;;;10.30;99.90;;;;;;5087203;28;20117;-69
2022/09/17 01:09:47;;;;;;;3.80;1.35;;;10.30;99.90;;;;;;5085846;28;20479;-69
2022/09/17 01:12:20;;;;;;;5.47;1.98;;;10.30;99.90;;;;;;5073937;28;20044;-69
2022/09/17 01:15:05;;;;;;;4.63;1.50;;;10.30;99.90;;;;;;5072448;28;20044;-69
2022/09/17 01:17:58;;;;;;;4.88;1.65;;;10.20;99.90;;;;;;5081969;28;20093;-69
2022/09/17 01:20:44;;;;;;;3.35;1.52;;;10.20;99.90;;;;;;5065113;28;20040;-68
2022/09/17 01:24:04;;;;;;;3.20;1.50;;;10.20;99.90;;;;;;5092696;28;20110;-69
2022/09/17 01:26:43;;;;;;;4.30;1.50;;;10.20;99.90;;;;;;5031283;28;20041;-69
2022/09/17 01:29:30;;;;;;;6.00;1.27;;;10.10;99.90;;;;;;5031227;28;20080;-68
2022/09/17 01:32:29;;;;;;;8.95;1.58;;;10.10;99.90;;;;;;5075688;28;20051;-68
2022/09/17 01:35:14;;;;;;;4.03;1.43;;;10.00;99.90;;;;;;5064176;28;20477;-68
2022/09/17 01:37:44;;;;;;;5.10;1.95;;;10.00;99.90;;;;;;5073253;28;20037;-69
2022/09/17 01:40:12;;;;;;;5.53;1.98;;;9.90;99.90;;;;;;5089072;28;20044;-69
2022/09/17 01:42:50;;;;;;;3.97;2.03;;;9.90;99.90;;;;;;5089109;28;20445;-68
2022/09/17 01:45:37;;;;;;;6.22;1.92;;;9.90;99.90;;;;;;5088947;28;20044;-69
2022/09/17 01:48:21;;;;;;;6.18;1.67;;;9.90;99.90;;;;;;5088596;28;20045;-69
2022/09/17 01:51:10;;;;;;;4.85;1.50;;;9.80;99.90;;;;;;5088719;28;20498;-69
2022/09/17 01:53:42;;;;;;;4.40;1.60;;;9.70;99.90;;;;;;5087943;28;20044;-69
2022/09/17 01:56:11;;;;;;;5.18;1.48;;;9.70;99.90;;;;;;5071598;28;20753;-69
2022/09/17 01:58:41;;;;;;;5.80;1.77;;;9.60;99.90;;;;;;5072136;28;20086;-69
2022/09/17 02:01:08;;;;;;;4.28;1.70;;;9.50;99.90;;;;;;5072217;28;20480;-69
2022/09/17 02:03:49;;;;;;;3.38;1.60;;;9.50;99.90;;;;;;5083640;28;20074;-68
2022/09/17 02:06:18;;;;;;;3.85;1.70;;;9.40;99.90;;;;;;5085374;28;20461;-69
2022/09/17 02:08:50;;;;;;;6.35;1.48;;;9.40;99.90;;;;;;5071756;28;20083;-69
2022/09/17 02:11:17;;;;;;;7.55;2.28;;;9.30;99.90;;;;;;5088035;28;20040;-69
2022/09/17 02:13:57;;;;;;;4.75;1.73;;;9.30;99.90;;;;;;5081678;28;20076;-69
2022/09/17 02:16:26;;;;;;;6.40;1.52;;;9.20;99.90;;;;;;5039457;28;20044;-69
2022/09/17 02:19:33;;;;;;;4.65;1.95;;;9.10;99.90;;;;;;5071079;28;20044;-69
2022/09/17 02:22:09;;;;;;;4.07;1.65;;;9.10;99.90;;;;;;5071989;28;20056;-69
2022/09/17 02:25:11;;;;;;;3.22;1.67;;;9.00;99.90;;;;;;5073530;28;20106;-69
2022/09/17 02:27:47;;;;;;;8.00;2.40;;;9.00;99.90;;;;;;5078185;28;20075;-69
2022/09/17 02:30:14;;;;;;;5.35;1.60;;;8.90;99.90;;;;;;5092828;28;20036;-69
2022/09/17 02:32:41;;;;;;;6.35;2.60;;;8.80;99.90;;;;;;5091334;28;20044;-68
2022/09/17 02:35:09;;;;;;;4.57;1.85;;;8.80;99.90;;;;;;5086924;28;20119;-69
2022/09/17 02:37:36;;;;;;;4.55;1.70;;;8.80;99.90;;;;;;5092071;28;20073;-69
2022/09/17 02:40:04;;;;;;;9.15;2.00;;;8.80;99.90;;;;;;5091321;28;20044;-68
2022/09/17 02:42:46;;;;;;;5.88;1.85;;;8.70;99.90;;;;;;5091130;28;20150;-69
2022/09/17 02:45:13;;;;;;;4.53;1.35;;;8.70;99.90;;;;;;5067543;28;20044;-69
2022/09/17 02:47:58;;;;;;;4.63;1.98;;;8.70;99.90;;;;;;5080252;28;20040;-68
2022/09/17 02:50:27;;;;;;;3.72;1.70;;;8.70;99.90;;;;;;5092642;28;20047;-69
2022/09/17 02:53:14;;;;;;;6.10;2.33;;;8.60;99.90;;;;;;5092327;28;20094;-69
2022/09/17 02:55:44;;;;;;;5.30;1.70;;;8.60;99.90;;;;;;5084222;28;20044;-68
2022/09/17 02:58:25;;;;;;;4.47;2.20;;;8.60;99.90;;;;;;5071195;28;20087;-68
2022/09/17 03:00:52;;;;;;;5.45;2.17;;;8.50;99.90;;;;;;5039642;28;20048;-69
2022/09/17 03:03:22;;;;;;;6.18;2.15;;;8.50;99.90;;;;;;5078387;28;20457;-69
2022/09/17 03:05:49;;;;;;;3.78;1.90;;;8.50;99.90;;;;;;5065875;28;20048;-68
2022/09/17 03:08:19;;;;;;;7.22;2.63;;;8.40;99.90;;;;;;5054510;28;20044;-68
2022/09/17 03:10:48;;;;;;;7.10;3.05;;;8.40;99.90;;;;;;5071631;28;20510;-69
2022/09/17 03:13:15;;;;;;;6.70;2.17;;;8.40;99.90;;;;;;5054321;28;20522;-69
2022/09/17 03:15:42;;;;;;;6.60;2.53;;;8.30;99.90;;;;;;5071985;28;20041;-67
2022/09/17 03:18:09;;;;;;;6.38;2.50;;;8.30;99.90;;;;;;5083534;28;20074;-71
2022/09/17 03:20:36;;;;;;;4.72;2.15;;;8.30;99.90;;;;;;5093953;28;20368;-67
2022/09/17 03:23:02;;;;;;;5.38;2.05;;;8.30;99.90;;;;;;5094889;28;20079;-67
2022/09/17 03:25:29;;;;;;;5.85;2.10;;;8.20;99.90;;;;;;5095019;28;20047;-66
2022/09/17 03:27:56;;;;;;;6.93;2.05;;;8.20;99.90;;;;;;5084889;28;20044;-67
2022/09/17 03:30:23;;;;;;;8.30;2.53;;;8.20;99.90;;;;;;5074745;28;20101;-68
2022/09/17 03:32:50;;;;;;;5.97;2.65;;;8.20;99.90;;;;;;5074431;28;20109;-53
2022/09/17 03:35:17;;;;;;;18.98;11.30;;;8.10;99.90;;;;;;5086183;28;20040;-70
2022/09/17 03:37:46;;;;;;;16.58;10.15;;;8.20;99.90;;;;;;5090590;28;20037;-66
2022/09/17 03:40:13;;;;;;;8.40;2.60;;;8.20;99.90;;;;;;5091056;28;20055;-66
2022/09/17 03:42:40;;;;;;;5.72;2.88;;;8.20;99.90;;;;;;5094718;28;20040;-66
2022/09/17 03:45:07;;;;;;;9.77;2.55;;;8.10;99.90;;;;;;5095876;28;20047;-66
2022/09/17 03:47:34;;;;;;;5.30;2.15;;;8.10;99.90;;;;;;5094366;28;20113;-66
2022/09/17 03:50:01;;;;;;;7.15;3.33;;;8.10;99.90;;;;;;5076863;28;20041;-66
2022/09/17 03:52:28;;;;;;;5.90;2.58;;;8.00;99.90;;;;;;5041130;28;20044;-66
2022/09/17 03:54:54;;;;;;;4.03;2.03;;;8.00;99.90;;;;;;5077930;28;20041;-66
2022/09/17 03:57:21;;;;;;;4.75;1.90;;;7.90;99.90;;;;;;5075361;28;20048;-66
2022/09/17 03:59:48;;;;;;;4.03;2.28;;;7.90;99.90;;;;;;5083283;28;20755;-66
2022/09/17 04:02:15;;;;;;;5.70;2.15;;;7.90;99.90;;;;;;5073560;28;20040;-66
2022/09/17 04:04:42;;;;;;;4.43;1.95;;;7.80;99.90;;;;;;5079815;28;20051;-66
2022/09/17 04:07:09;;;;;;;3.85;2.25;;;7.80;99.90;;;;;;5077769;28;20048;-65
2022/09/17 04:09:36;;;;;;;6.00;2.17;;;7.80;99.90;;;;;;5091607;28;20044;-66
2022/09/17 04:12:03;;;;;;;4.22;2.15;;;7.70;99.90;;;;;;5060736;28;20048;-66
2022/09/17 04:14:29;;;;;;;5.18;2.45;;;7.70;99.90;;;;;;5095289;28;20467;-66
2022/09/17 04:16:57;;;;;;;5.13;1.83;;;7.70;99.90;;;;;;5095360;28;20109;-68
2022/09/17 04:19:24;;;;;;;4.63;2.33;;;7.70;99.90;;;;;;5081644;28;20049;-66
2022/09/17 04:21:51;;;;;;;6.53;2.15;;;7.70;99.90;;;;;;5080793;28;20053;-66
2022/09/17 04:24:18;;;;;;;4.82;2.47;;;7.60;99.90;;;;;;5073758;28;20369;-66
2022/09/17 04:26:45;;;;;;;4.85;2.38;;;7.60;99.90;;;;;;5080445;28;20102;-66
2022/09/17 04:29:12;;;;;;;4.63;2.60;;;7.60;99.90;;;;;;5073440;28;20468;-65
2022/09/17 04:31:39;;;;;;;6.65;2.22;;;7.50;99.90;;;;;;5076252;28;20110;-66
2022/09/17 04:34:06;;;;;;;4.63;1.90;;;7.50;99.90;;;;;;5074927;28;20391;-66
2022/09/17 04:36:32;;;;;;;6.88;2.15;;;7.50;99.90;;;;;;5072879;28;20110;-66
2022/09/17 04:38:59;;;;;;;4.50;2.08;;;7.50;99.90;;;;;;5055909;28;20048;-66
2022/09/17 04:41:26;;;;;;;4.53;2.03;;;7.50;99.90;;;;;;5074869;28;20082;-66
2022/09/17 04:43:53;;;;;;;6.03;3.03;;;7.60;99.90;;;;;;5074611;28;20048;-66
2022/09/17 04:46:20;;;;;;;6.53;2.53;;;7.50;99.90;;;;;;5073616;28;20114;-66
2022/09/17 04:48:47;;;;;;;4.70;2.40;;;7.50;99.90;;;;;;5073059;28;20166;-66
2022/09/17 04:51:14;;;;;;;4.63;3.25;;;7.50;99.90;;;;;;5088612;28;20056;-66
2022/09/17 04:53:40;;;;;;;4.85;2.63;;;7.50;99.90;;;;;;5091813;28;20048;-66
2022/09/17 04:56:07;;;;;;;4.75;1.70;;;7.50;99.90;;;;;;5093280;28;20093;-66
2022/09/17 04:58:34;;;;;;;4.45;2.03;;;7.50;99.90;;;;;;5092217;28;20093;-66
2022/09/17 05:01:01;;;;;;;7.43;2.50;;;7.50;99.90;;;;;;5092893;28;20126;-66
2022/09/17 05:03:28;;;;;;;3.60;1.80;;;7.40;99.90;;;;;;5092053;28;20086;-66
2022/09/17 05:05:55;;;;;;;5.72;2.08;;;7.40;99.90;;;;;;5091784;28;20051;-66
2022/09/17 05:08:22;;;;;;;6.05;2.15;;;7.30;99.90;;;;;;5075416;28;20101;-66
2022/09/17 05:10:50;;;;;;;4.28;2.40;;;7.30;99.90;;;;;;5093264;28;20090;-66
2022/09/17 05:13:17;;;;;;;4.50;2.28;;;7.30;99.90;;;;;;5069033;28;20478;-66
2022/09/17 05:15:44;;;;;;;7.70;2.92;;;7.30;99.90;;;;;;5089336;28;20048;-67
2022/09/17 05:18:11;;;;;;;6.00;2.33;;;7.30;99.90;;;;;;5074694;28;20502;-66
2022/09/17 05:20:38;;;;;;;9.88;3.45;;;7.30;99.90;;;;;;5091858;28;20090;-66
2022/09/17 05:23:05;;;;;;;6.20;2.20;;;7.20;99.90;;;;;;5091863;28;20039;-66
2022/09/17 05:25:32;;;;;;;5.82;2.85;;;7.30;99.90;;;;;;5043762;28;1154380;-66
2022/09/17 05:28:00;;;;;;;6.05;2.75;;;7.20;99.90;;;;;;5060609;28;20067;-68
2022/09/17 05:30:26;;;;;;;2.90;2.10;;;7.20;99.90;;;;;;5072546;28;20048;-68
2022/09/17 05:33:00;;;;;;;4.85;2.75;;;7.20;99.90;;;;;;5080910;28;20398;-68
2022/09/17 05:35:28;;;;;;;5.70;2.40;;;7.20;99.90;;;;;;5070047;28;20043;-69
2022/09/17 05:38:02;;;;;;;4.03;2.63;;;7.20;99.90;;;;;;5089036;28;20089;-68
2022/09/17 05:40:29;;;;;;;7.35;2.20;;;7.20;99.90;;;;;;5092697;28;20044;-68
2022/09/17 05:43:00;;;;;;;4.90;2.33;;;7.20;99.90;;;;;;5075712;28;20404;-68
2022/09/17 05:45:28;;;;;;;5.47;2.60;;;7.20;99.90;;;;;;5090676;28;20117;-69
2022/09/17 05:47:59;;;;;;;6.45;2.33;;;7.20;99.90;;;;;;5071558;28;20048;-69
2022/09/17 05:50:26;;;;;;;4.25;2.40;;;7.20;99.90;;;;;;5071895;28;20041;-68
2022/09/17 05:52:53;;;;;;;9.75;2.40;;;7.20;99.90;;;;;;5071921;28;20468;-68
2022/09/17 05:55:21;;;;;;;5.00;1.90;;;7.20;99.90;;;;;;5039027;28;20530;-66
2022/09/17 05:57:48;;;;;;;7.03;3.08;;;7.20;99.90;;;;;;5072644;28;20083;-66
2022/09/17 06:00:15;;;;;;;3.33;2.30;;;7.20;99.90;;;;;;5072481;28;20076;-68
2022/09/17 06:02:42;;;;;;;3.92;2.10;;;7.20;99.90;;;;;;5078098;28;20087;-66
2022/09/17 06:05:09;;;;;;;8.15;2.38;;;7.20;99.90;;;;;;5080106;28;20052;-66
2022/09/17 06:07:37;;;;;;;3.40;2.05;;;7.30;99.90;;;;;;5080695;28;20040;-66
2022/09/17 06:10:05;;;;;;;3.97;2.30;;;7.30;99.90;;;;;;5071797;28;20044;-69
2022/09/17 06:12:34;;;;;;;8.73;2.70;;;7.30;99.90;;;;;;5055068;28;20048;-66
2022/09/17 06:15:02;;;;;;;4.00;2.20;;;7.30;99.90;;;;;;5073276;28;20044;-66
2022/09/17 06:17:32;;;;;;;3.70;2.30;;;7.40;99.90;;;;;;5091618;28;20044;-66
2022/09/17 06:20:00;;;;;;;4.63;2.25;;;7.40;99.90;;;;;;5074788;28;20044;-66
2022/09/17 06:22:27;;;;;;;6.40;2.40;;;7.40;99.90;;;;;;5092919;28;20048;-66
2022/09/17 06:24:54;;;;;;;6.78;2.13;;;7.40;99.90;;;;;;5092436;28;20525;-65
2022/09/17 06:27:20;;;;;;;4.95;2.25;;;7.50;99.90;;;;;;5090804;28;20360;-66
2022/09/17 06:29:47;;;;;;;8.48;2.50;;;7.50;99.90;;;;;;5074186;28;20040;-66
2022/09/17 06:32:15;;;;;;;8.35;3.78;;;7.50;99.90;;;;;;5071801;28;20540;-65
2022/09/17 06:34:42;;;;;;;4.07;2.28;;;7.50;99.90;;;;;;5072025;28;20048;-66
2022/09/17 06:37:10;;;;;;;6.30;2.55;;;7.50;99.90;;;;;;5087084;28;20094;-66
2022/09/17 06:39:36;;;;;;;6.38;2.70;;;7.60;99.90;;;;;;5070904;28;20076;-66
2022/09/17 06:42:04;;;;;;;3.22;1.70;;;7.60;99.90;;;;;;5087805;28;20033;-66
2022/09/17 06:44:30;;;;;;;4.57;2.28;;;7.60;99.90;;;;;;5080706;28;20040;-66
2022/09/17 06:46:57;;;;;;;3.58;2.05;;;7.70;99.90;;;;;;5087814;28;20041;-66
2022/09/17 06:49:24;;;;;;;4.38;2.70;;;7.70;99.90;;;;;;5094338;28;20089;-67
2022/09/17 06:51:51;;;;;;;4.38;2.42;;;7.70;99.90;;;;;;5091010;28;20043;-66
2022/09/17 06:54:18;;;;;;;4.20;1.92;;;7.80;99.90;;;;;;5080548;28;20094;-68
2022/09/17 06:56:46;;;;;;;4.75;2.75;;;7.80;99.90;;;;;;5070817;28;20040;-69
2022/09/17 06:59:13;;;;;;;5.55;2.28;;;7.90;99.90;;;;;;5073404;28;20040;-66
2022/09/17 07:01:40;;;;;;;6.93;2.80;;;7.90;99.90;;;;;;5090310;28;20047;-66
2022/09/17 07:04:07;;;;;;;6.72;2.97;;;7.90;99.90;;;;;;5072724;28;20045;-66
2022/09/17 07:06:34;;;;;;;6.93;2.30;;;8.00;99.90;;;;;;5091291;28;20051;-66
2022/09/17 07:09:01;;;;;;;4.60;2.40;;;8.10;99.90;;;;;;5090111;28;20052;-66
2022/09/17 07:11:30;;;;;;;3.72;2.00;;;8.10;99.90;;;;;;5090534;28;20044;-67
2022/09/17 07:13:57;;;;;;;5.32;2.78;;;8.20;99.90;;;;;;5074560;28;20081;-68
2022/09/17 07:16:25;;;;;;;7.72;2.40;;;8.30;99.90;;;;;;5091074;28;20048;-68
2022/09/17 07:18:52;;;;;;;5.88;2.28;;;8.30;99.90;;;;;;5090538;28;20051;-66
2022/09/17 07:21:19;;;;;;;4.85;2.72;;;8.40;99.90;;;;;;5076008;28;20546;-67
2022/09/17 07:23:46;;;;;;;7.45;2.58;;;8.50;99.90;;;;;;5071722;28;20052;-67
2022/09/17 07:26:13;;;;;;;4.15;2.20;;;8.60;99.90;;;;;;5071702;28;20055;-66
2022/09/17 07:28:40;;;;;;;3.70;2.10;;;8.60;99.90;;;;;;5064426;28;20384;-67
2022/09/17 07:31:08;;;;;;;5.35;2.63;;;8.70;99.90;;;;;;5071745;28;20044;-67
2022/09/17 07:33:41;;;;;;;4.13;1.98;;;8.80;99.90;;;;;;5076391;28;20044;-66
2022/09/17 07:36:12;;;;;;;5.85;2.30;;;8.80;99.90;;;;;;5087202;28;20067;-67
2022/09/17 07:38:39;;;;;;;4.55;2.20;;;8.90;99.90;;;;;;5090853;28;20048;-67
2022/09/17 07:41:11;;;;;;;6.10;2.22;;;9.00;99.90;;;;;;5088816;28;20040;-66
2022/09/17 07:43:38;;;;;;;4.75;2.10;;;9.00;99.90;;;;;;5074535;28;20036;-67
2022/09/17 07:46:06;;;;;;;4.43;2.20;;;9.10;99.90;;;;;;5090957;28;20057;-67
2022/09/17 07:48:33;;;;;;;10.07;3.28;;;9.20;99.90;;;;;;5090106;28;20043;-67
2022/09/17 07:51:00;;;;;;;8.95;3.13;;;9.20;99.90;;;;;;5073678;28;20490;-68
2022/09/17 07:53:27;;;;;;;6.47;3.38;;;9.30;99.90;;;;;;5056615;28;20057;-67
2022/09/17 07:55:58;;;;;;;6.15;2.70;;;9.40;99.90;;;;;;5054591;28;20049;-67
2022/09/17 07:58:30;;;;;;;10.65;3.08;;;9.40;99.90;;;;;;5070588;28;20452;-67
2022/09/17 08:01:05;;;;;;;4.78;2.80;;;9.40;99.90;;;;;;5070576;28;20090;-67
2022/09/17 08:03:32;;;;;;;5.85;2.95;;;9.50;99.90;;;;;;5077851;28;20045;-67
2022/09/17 08:06:10;;;;;;;5.32;2.40;;;9.60;99.90;;;;;;5091730;28;20117;-67
2022/09/17 08:08:38;;;;;;;5.57;2.60;;;9.60;99.90;;;;;;5059555;28;20041;-67
2022/09/17 08:11:06;;;;;;;6.07;2.65;;;9.70;99.90;;;;;;5094365;28;20054;-67
2022/09/17 08:13:33;;;;;;;11.75;3.50;;;9.80;99.90;;;;;;5077048;28;20071;-67
2022/09/17 08:16:08;;;;;;;8.70;3.20;;;9.80;99.90;;;;;;5060669;28;20071;-67
2022/09/17 08:18:35;;;;;;;6.20;2.30;;;9.90;99.90;;;;;;5077096;28;20093;-67
2022/09/17 08:21:03;;;;;;;5.68;2.00;;;10.00;99.90;;;;;;5060799;28;20048;-67
2022/09/17 08:23:30;;;;;;;7.22;2.97;;;10.10;99.90;;;;;;5091933;28;20036;-67
2022/09/17 08:25:58;;;;;;;7.80;2.65;;;10.10;99.90;;;;;;5093963;28;20105;-67
2022/09/17 08:28:27;;;;;;;4.80;2.22;;;10.20;99.90;;;;;;5077362;28;20044;-67
2022/09/17 08:30:54;;;;;;;5.22;2.30;;;10.30;99.90;;;;;;5093932;28;20487;-67
2022/09/17 08:33:21;;;;;;;21.08;3.42;;;10.50;99.90;;;;;;5076625;28;20040;-67
2022/09/17 08:35:58;;;;;;;6.32;2.00;;;10.60;99.90;;;;;;5085776;28;20066;-66
2022/09/17 08:38:29;;;;;;;7.15;2.67;;;10.70;99.90;;;;;;5057299;28;20450;-67
2022/09/17 08:41:11;;;;;;;6.65;1.75;;;10.80;99.90;;;;;;5073727;28;20044;-67
2022/09/17 08:43:44;;;;;;;24.58;13.68;;;10.90;99.90;;;;;;5085378;28;20457;-67
2022/09/17 08:46:11;;;;;;;3.88;2.13;;;11.00;99.90;;;;;;5085323;28;20052;-67
2022/09/17 08:48:55;;;;;;;3.55;1.20;;;11.20;99.90;;;;;;5072678;28;20040;-67
2022/09/17 08:51:25;;;;;;;5.93;2.17;;;11.30;99.90;;;;;;5058328;28;20503;-67
2022/09/17 08:54:27;;;;;;;5.20;1.20;;;11.40;99.90;;;;;;5076285;28;20040;-67
2022/09/17 08:57:03;;;;;;;5.72;1.30;;;11.50;99.90;;;;;;5061596;28;20045;-67
2022/09/17 08:59:51;;;;;;;5.80;1.17;;;11.50;99.90;;;;;;5056671;28;20082;-67
2022/09/17 09:02:31;;;;;;;6.38;1.50;;;11.60;99.90;;;;;;5075769;28;20041;-67
2022/09/17 09:05:07;;;;;;;3.47;1.48;;;11.70;99.90;;;;;;5061087;28;20043;-67
2022/09/17 09:07:37;;;;;;;4.50;1.13;;;11.70;99.90;;;;;;5081289;28;20388;-67
2022/09/17 09:10:09;;;;;;;6.70;1.63;;;11.70;99.90;;;;;;5093361;28;20373;-67
2022/09/17 09:12:36;;;;;;;3.92;1.20;;;11.90;99.90;;;;;;5076469;28;20497;-67
2022/09/17 09:15:37;;;;;;;3.17;1.10;;;12.00;99.90;;;;;;5075164;28;20070;-67
2022/09/17 09:18:14;;;;;;;6.00;2.20;;;12.10;99.90;;;;;;5078484;28;20036;-67
2022/09/17 09:20:54;;;;;;;3.03;1.30;;;12.20;99.90;;;;;;5072571;28;20387;-67
2022/09/17 09:23:40;;;;;;;3.95;1.38;;;12.30;99.90;;;;;;5060429;28;20044;-67
2022/09/17 09:26:21;;;;;;;4.88;1.75;;;12.30;99.90;;;;;;5073036;28;20048;-67
2022/09/17 09:29:14;;;;;;;6.78;2.40;;;12.30;99.90;;;;;;5086518;28;20435;-69
2022/09/17 09:32:21;;;;;;;3.88;1.35;;;12.20;99.90;;;;;;5074347;28;20117;-67
2022/09/17 09:34:48;;;;;;;3.40;1.70;;;12.30;99.90;;;;;;5072800;28;20044;-67
2022/09/17 09:37:30;;;;;;;2.50;1.00;;;12.40;99.90;;;;;;5106492;28;20040;-67
2022/09/17 09:40:22;;;;;;;5.30;1.90;;;12.40;99.90;;;;;;5055562;28;20086;-67
2022/09/17 09:42:49;;;;;;;4.40;1.42;;;12.50;99.90;;;;;;5058378;28;20388;-67
2022/09/17 09:45:19;;;;;;;7.78;2.05;;;12.50;99.90;;;;;;5078432;28;20052;-67
2022/09/17 09:48:01;;;;;;;5.97;2.42;;;12.50;99.90;;;;;;5072560;28;20052;-67
2022/09/17 09:50:33;;;;;;;3.10;1.95;;;12.60;99.90;;;;;;5071062;28;20049;-66
2022/09/17 09:53:20;;;;;;;3.80;1.17;;;12.60;99.90;;;;;;5071749;28;20071;-68
2022/09/17 09:56:05;;;;;;;2.50;1.10;;;12.60;99.90;;;;;;5072676;28;20036;-67
2022/09/17 09:58:37;;;;;;;2.97;1.20;;;12.70;99.90;;;;;;5072100;28;20161;-67
2022/09/17 10:01:12;;;;;;;4.65;1.27;;;12.70;99.90;;;;;;5093673;28;20044;-68
2022/09/17 10:03:40;;;;;;;1.90;1.25;;;12.70;99.90;;;;;;5074137;28;20090;-67
2022/09/17 10:06:08;;;;;;;7.00;1.17;;;12.70;99.90;;;;;;5075195;28;20110;-66
2022/09/17 10:08:40;;;;;;;2.92;1.08;;;12.80;99.90;;;;;;5088233;28;20044;-67
2022/09/17 10:11:19;;;;;;;5.38;1.52;;;12.90;99.90;;;;;;5088814;28;20044;-68
2022/09/17 10:13:46;;;;;;;;;;;13.00;99.90;;;;;;5071735;28;20064;-68
2022/09/17 10:16:28;;;;;;;8.80;1.63;;;13.00;99.90;;;;;;5055097;28;19962;-68
2022/09/17 10:19:10;;;;;;;4.47;1.75;;;13.20;99.90;;;;;;5055880;28;20094;-68
2022/09/17 10:21:41;;;;;;;4.90;2.13;;;13.20;99.90;;;;;;5079328;28;20063;-67
2022/09/17 10:24:27;;;;;;;4.65;1.30;;;13.20;99.90;;;;;;5091462;28;20441;-67
2022/09/17 10:27:04;;;;;;;4.07;1.10;;;13.30;99.90;;;;;;5093339;28;20063;-67
2022/09/17 10:29:31;;;;;;;3.97;1.08;;;13.30;99.90;;;;;;5091931;28;20484;-67
2022/09/17 10:31:58;;;;;;;2.25;1.30;;;13.40;99.90;;;;;;5076011;28;20086;-67
2022/09/17 10:34:26;;;;;;;5.30;1.50;;;13.40;99.90;;;;;;5071186;28;20040;-67
2022/09/17 10:36:54;;;;;;;3.05;1.10;;;13.40;99.90;;;;;;5089671;28;20106;-67
2022/09/17 10:39:33;;;;;;;5.63;1.02;;;13.40;99.90;;;;;;5054790;28;20094;-68
2022/09/17 10:42:04;;;;;;;3.30;0.90;;;13.50;99.90;;;;;;5074069;28;20036;-68
2022/09/17 10:44:33;;;;;;;3.55;1.05;;;13.50;99.90;;;;;;5089009;28;20086;-67
2022/09/17 10:47:14;;;;;;;4.60;1.20;;;13.60;99.90;;;;;;5107952;28;20044;-67
2022/09/17 10:50:08;;;;;;;22.58;17.70;;;13.50;99.90;;;;;;5090853;28;20048;-67
2022/09/17 10:52:37;;;;;;;5.70;2.20;;;13.60;99.90;;;;;;5100886;28;20523;-68
2022/09/17 10:55:36;;;;;;;2.97;1.13;;;13.70;99.90;;;;;;5074328;28;20075;-68
2022/09/17 10:58:04;;;;;;;3.05;1.55;;;13.80;99.90;;;;;;5074648;28;20081;-68
2022/09/17 11:00:47;;;;;;;2.67;1.20;;;13.90;99.90;;;;;;5091155;28;20101;-68
2022/09/17 11:03:38;;;;;;;3.42;1.00;;;14.00;99.90;;;;;;5066375;28;20075;-69
2022/09/17 11:06:36;;;;;;;2.65;1.00;;;14.00;99.90;;;;;;5092248;28;20040;-68
2022/09/17 11:09:27;;;;;;;4.18;1.10;;;13.90;99.90;;;;;;5092306;28;20040;-68
2022/09/17 11:12:09;;;;;;;2.95;1.05;;;13.90;99.90;;;;;;5092182;28;20442;-69
2022/09/17 11:14:42;;;;;;;2.95;1.00;;;14.00;99.90;;;;;;5073804;28;20052;-68
2022/09/17 11:17:33;;;;;;;4.60;1.02;;;14.00;99.90;;;;;;5072135;28;20063;-68
2022/09/17 11:20:03;;;;;;;19.95;11.82;;;14.00;99.90;;;;;;5067965;28;20094;-67
2022/09/17 11:22:37;;;;;;;;;;;14.10;99.90;;;;;;5087672;28;20094;-67
2022/09/17 11:25:26;;;;;;;3.22;1.67;;;14.10;99.90;;;;;;5072071;28;19920;-67
2022/09/17 11:28:04;;;;;;;2.88;1.20;;;14.20;99.90;;;;;;5070646;28;20044;-67
2022/09/17 11:30:57;;;;;;;4.55;1.30;;;14.30;99.90;;;;;;5086552;28;20040;-67
2022/09/17 11:33:27;;;;;;;3.55;1.20;;;14.40;99.90;;;;;;5061875;28;20047;-67
2022/09/17 11:36:25;;;;;;;2.58;1.00;;;14.50;99.90;;;;;;5086101;28;20085;-67
2022/09/17 11:38:52;;;;;;;2.67;0.90;;;14.50;99.90;;;;;;5093259;28;20098;-67
2022/09/17 11:41:20;;;;;;;1.98;1.27;;;14.60;99.90;;;;;;5077818;28;20036;-67
2022/09/17 11:44:22;;;;;;;7.05;1.15;;;14.60;99.90;;;;;;5094916;28;20040;-67
2022/09/17 11:47:09;;;;;;;2.50;0.90;;;14.70;99.90;;;;;;5081592;28;20045;-67
2022/09/17 11:49:52;;;;;;;3.10;1.15;;;14.70;99.90;;;;;;5073222;28;20414;-67
2022/09/17 11:52:26;;;;;;;2.90;1.00;;;14.80;99.90;;;;;;5091840;28;20090;-67
2022/09/17 11:55:05;;;;;;;4.07;1.48;;;14.80;99.90;;;;;;5093410;28;20044;-67
2022/09/17 11:57:34;;;;;;;1.83;0.80;;;14.80;99.90;;;;;;5074464;28;20047;-67
2022/09/17 12:00:21;;;;;;;3.10;1.02;;;14.80;99.90;;;;;;5074282;28;20040;-67
2022/09/17 12:03:14;;;;;;;2.80;1.10;;;14.80;99.90;;;;;;5085929;28;20037;-67
2022/09/17 12:05:44;;;;;;;1.27;0.68;;;14.80;99.90;;;;;;5077338;28;20529;-67
2022/09/17 12:08:22;;;;;;;4.63;1.30;;;14.80;99.90;;;;;;5057600;28;20415;-67
2022/09/17 12:11:06;;;;;;;3.58;1.10;;;14.90;99.90;;;;;;5076166;28;20068;-67
2022/09/17 12:13:39;;;;;;;4.45;1.55;;;14.90;99.90;;;;;;5078275;28;20369;-68
2022/09/17 12:16:14;;;;;;;3.83;1.40;;;14.90;99.90;;;;;;5065889;28;20052;-68
2022/09/17 12:18:59;;;;;;;2.97;1.10;;;14.90;99.90;;;;;;5094752;28;20698;-68
2022/09/17 12:21:53;;;;;;;5.20;1.20;;;14.90;99.90;;;;;;5094818;28;20101;-67
2022/09/17 12:24:31;;;;;;;3.17;2.13;;;14.90;99.70;;;;;;5094808;28;20510;-68
2022/09/17 12:27:03;;;;;;;3.22;1.17;;;14.90;99.90;;;;;;5090241;28;20040;-68
2022/09/17 12:30:03;;;;;;;3.28;1.30;;;14.90;99.90;;;;;;5075171;28;20044;-68
2022/09/17 12:32:46;;;;;;;1.33;1.10;;;15.00;99.00;;;;;;5057446;28;20102;-68
2022/09/17 12:35:42;;;;;;;3.38;1.42;;;15.00;99.80;;;;;;5081544;28;20093;-68
2022/09/17 12:38:32;;;;;;;6.38;1.30;;;15.10;98.90;;;;;;5080108;28;20638;-68
2022/09/17 12:41:20;;;;;;;5.55;1.20;;;15.10;99.80;;;;;;5087327;28;20098;-68
2022/09/17 12:44:11;;;;;;;2.83;1.42;;;15.10;96.20;;;;;;5056752;28;20056;-68
2022/09/17 12:46:51;;;;;;;8.63;1.65;;;15.10;97.20;;;;;;5072899;28;20109;-68
2022/09/17 12:49:27;;;;;;;2.63;1.30;;;15.20;97.10;;;;;;5081940;28;20464;-68
2022/09/17 12:51:54;;;;;;;2.85;1.83;;;15.20;96.60;;;;;;5089517;28;20041;-68
2022/09/17 12:54:43;;;;;;;1.73;1.05;;;15.20;96.90;;;;;;5077826;28;20039;-68
2022/09/17 12:57:42;;;;;;;1.98;1.00;;;15.30;96.50;;;;;;5087210;28;20051;-68
2022/09/17 13:00:13;;;;;;;3.90;1.35;;;15.30;95.90;;;;;;5074884;28;20476;-68
2022/09/17 13:03:01;;;;;;;3.38;1.10;;;15.30;97.70;;;;;;5089789;28;20123;-69
2022/09/17 13:06:07;;;;;;;2.87;1.20;;;15.30;94.70;;;;;;5079620;28;20044;-67
2022/09/17 13:09:04;;;;;;;2.42;1.02;;;15.40;95.80;;;;;;5093894;28;20051;-68
2022/09/17 13:11:56;;;;;;;6.13;1.75;;;15.40;94.70;;;;;;5075213;28;20518;-68
2022/09/17 13:14:48;;;;;;;7.45;2.10;;;15.50;94.50;;;;;;5094042;28;20044;-68
2022/09/17 13:17:44;;;;;;;2.85;1.25;;;15.60;94.20;;;;;;5109694;28;20040;-68
2022/09/17 13:21:02;;;;;;;2.67;1.10;;;15.60;94.10;;;;;;5092147;28;20047;-69
2022/09/17 13:23:51;;;;;;;2.70;1.20;;;15.70;94.40;;;;;;5055967;28;20048;-68
2022/09/17 13:27:14;;;;;;;2.80;0.95;;;15.70;93.50;;;;;;5108589;28;20052;-68
2022/09/17 13:37:29;;;;;;;6.35;1.15;;;15.50;93.20;;;;;;5050795;28;20067;-66